Time;durP1;ratioP1;P1;durP2;ratioP2;P2;SDS_P1;SDS_P2;PMS_P1;PMS_P2;Temp;Humidity;BMP_temperature;BMP_pressure;BME280_temperature;BME280_humidity;BME280_pressure;Samples;Min_cycle;Max_cycle;Signal;HPM_P1;HPM_P2
2022/03/04 00:00:11;;;;;;;25.17;17.17;;;3.40;99.90;;;;;;5043219;28;38288;-76
2022/03/04 00:02:37;;;;;;;24.50;16.43;;;3.30;99.90;;;;;;5038730;28;38720;-76
2022/03/04 00:05:04;;;;;;;26.07;17.23;;;3.20;99.90;;;;;;5041520;28;39453;-76
2022/03/04 00:07:30;;;;;;;26.10;16.93;;;3.20;99.90;;;;;;5041974;28;39090;-76
2022/03/04 00:09:56;;;;;;;29.57;18.60;;;3.20;99.90;;;;;;5041519;28;38419;-76
2022/03/04 00:12:22;;;;;;;29.03;17.37;;;3.10;99.90;;;;;;5044538;28;37994;-76
2022/03/04 00:14:48;;;;;;;26.13;16.70;;;3.10;99.90;;;;;;5041529;28;37640;-76
2022/03/04 00:17:14;;;;;;;26.03;17.43;;;3.00;99.90;;;;;;5037809;28;39898;-76
2022/03/04 00:19:41;;;;;;;26.83;17.77;;;3.00;99.90;;;;;;5036368;28;38374;-76
2022/03/04 00:22:07;;;;;;;27.50;18.23;;;3.00;99.90;;;;;;5037604;28;40957;-76
2022/03/04 00:24:33;;;;;;;28.33;17.90;;;2.90;99.90;;;;;;5042753;28;38519;-76
2022/03/04 00:26:59;;;;;;;27.97;17.97;;;2.90;99.90;;;;;;5034203;28;39967;-76
2022/03/04 00:29:26;;;;;;;29.50;17.33;;;2.80;99.90;;;;;;5030214;28;37858;-75
2022/03/04 00:31:52;;;;;;;27.37;17.90;;;2.70;99.90;;;;;;5047808;28;41353;-76
2022/03/04 00:34:18;;;;;;;26.50;16.97;;;2.70;99.90;;;;;;5035395;28;39305;-76
2022/03/04 00:36:44;;;;;;;26.47;18.03;;;2.70;99.90;;;;;;5032250;28;39194;-76
2022/03/04 00:39:13;;;;;;;25.63;17.03;;;2.70;99.90;;;;;;5028165;28;37916;-75
2022/03/04 00:41:39;;;;;;;31.53;18.27;;;2.70;99.90;;;;;;5033415;28;39830;-75
2022/03/04 00:44:06;;;;;;;28.60;18.03;;;2.70;99.90;;;;;;5034588;28;40033;-75
2022/03/04 00:46:32;;;;;;;26.97;17.57;;;2.70;99.90;;;;;;5040325;28;38998;-75
2022/03/04 00:48:58;;;;;;;34.67;19.07;;;2.70;99.90;;;;;;5036750;28;38159;-76
2022/03/04 00:51:25;;;;;;;28.97;18.40;;;2.60;99.90;;;;;;5037576;28;38921;-76
2022/03/04 00:53:51;;;;;;;32.67;18.67;;;2.50;99.90;;;;;;5043100;28;39292;-76
2022/03/04 00:56:17;;;;;;;28.30;18.03;;;2.50;99.90;;;;;;5039787;28;40057;-76
2022/03/04 00:58:43;;;;;;;30.23;19.87;;;2.50;99.90;;;;;;5037117;28;38220;-76
2022/03/04 01:01:09;;;;;;;27.20;18.10;;;2.50;99.90;;;;;;5039542;28;40954;-75
2022/03/04 01:03:36;;;;;;;28.80;17.97;;;2.40;99.90;;;;;;5037779;28;39574;-76
2022/03/04 01:06:04;;;;;;;29.27;18.67;;;2.40;99.90;;;;;;5042743;28;38362;-76
2022/03/04 01:08:30;;;;;;;27.87;17.63;;;2.40;99.90;;;;;;5054469;28;38861;-76
2022/03/04 01:10:56;;;;;;;30.77;17.97;;;2.40;99.90;;;;;;5041573;28;38949;-76
2022/03/04 01:13:23;;;;;;;28.33;18.07;;;2.40;99.90;;;;;;5039698;28;38972;-76
2022/03/04 01:15:50;;;;;;;28.30;17.77;;;2.30;99.90;;;;;;5040220;28;39327;-76
2022/03/04 01:18:17;;;;;;;29.13;17.60;;;2.30;99.90;;;;;;5038011;28;37950;-75
2022/03/04 01:20:43;;;;;;;28.90;18.47;;;2.20;99.90;;;;;;5040456;28;39799;-76
2022/03/04 01:23:09;;;;;;;27.10;18.50;;;2.20;99.90;;;;;;5034692;28;40222;-76
2022/03/04 01:25:35;;;;;;;29.47;18.50;;;2.20;99.90;;;;;;5043755;28;37048;-76
2022/03/04 01:28:01;;;;;;;31.10;18.70;;;2.10;99.90;;;;;;5039276;28;38914;-75
2022/03/04 01:30:28;;;;;;;28.97;18.87;;;2.10;99.90;;;;;;5030739;28;37463;-76
2022/03/04 01:32:54;;;;;;;32.30;18.03;;;2.00;99.90;;;;;;5037266;28;40679;-76
2022/03/04 01:35:20;;;;;;;25.43;18.23;;;2.10;99.90;;;;;;5043307;28;38743;-76
2022/03/04 01:37:47;;;;;;;31.07;19.57;;;2.00;99.90;;;;;;5040055;28;38581;-76
2022/03/04 01:40:14;;;;;;;30.37;18.50;;;2.10;99.90;;;;;;5039779;28;39508;-76
2022/03/04 01:42:40;;;;;;;28.73;18.50;;;2.10;99.90;;;;;;5039088;28;38959;-76
2022/03/04 01:45:09;;;;;;;29.33;18.83;;;2.00;99.90;;;;;;5039140;28;41035;-75
2022/03/04 01:47:40;;;;;;;29.13;18.07;;;2.00;99.90;;;;;;5040630;28;37662;-76
2022/03/04 01:50:06;;;;;;;28.20;18.20;;;2.00;99.90;;;;;;5041075;28;40463;-76
2022/03/04 01:52:32;;;;;;;29.07;17.40;;;2.00;99.90;;;;;;5035712;28;39095;-76
2022/03/04 01:54:59;;;;;;;26.60;16.83;;;1.90;99.90;;;;;;5040956;28;38929;-76
2022/03/04 01:57:25;;;;;;;26.27;18.20;;;1.90;99.90;;;;;;5033987;28;37016;-76
2022/03/04 01:59:51;;;;;;;29.43;17.97;;;1.90;99.90;;;;;;5040484;28;40843;-76
2022/03/04 02:02:17;;;;;;;28.00;17.90;;;1.90;99.90;;;;;;5039510;28;40378;-76
2022/03/04 02:04:43;;;;;;;28.43;18.80;;;1.90;99.90;;;;;;5037843;28;38455;-76
2022/03/04 02:07:09;;;;;;;26.87;18.30;;;1.80;99.90;;;;;;5031348;28;39071;-76
2022/03/04 02:09:36;;;;;;;25.77;17.77;;;1.80;99.90;;;;;;5035443;28;40360;-76
2022/03/04 02:12:02;;;;;;;30.17;18.60;;;1.80;99.90;;;;;;5042798;28;39480;-75
2022/03/04 02:14:28;;;;;;;27.00;18.70;;;1.70;99.90;;;;;;5038442;28;39525;-76
2022/03/04 02:16:54;;;;;;;26.40;17.77;;;1.80;99.90;;;;;;5043331;28;37814;-76
2022/03/04 02:19:21;;;;;;;32.80;18.93;;;1.80;99.90;;;;;;5032271;28;39818;-75
2022/03/04 02:21:53;;;;;;;27.03;17.83;;;1.70;99.90;;;;;;5040798;28;40596;-76
2022/03/04 02:24:20;;;;;;;29.10;17.80;;;1.70;99.90;;;;;;5029435;28;39453;-75
2022/03/04 02:26:46;;;;;;;29.57;19.53;;;1.60;99.90;;;;;;5038858;28;38254;-76
2022/03/04 02:29:12;;;;;;;27.27;17.73;;;1.60;99.90;;;;;;5035253;28;39985;-75
2022/03/04 02:31:38;;;;;;;33.47;19.20;;;1.60;99.90;;;;;;5038015;28;39479;-75
2022/03/04 02:34:05;;;;;;;29.27;17.57;;;1.60;99.90;;;;;;5036895;28;38644;-75
2022/03/04 02:36:32;;;;;;;29.90;19.47;;;1.60;99.90;;;;;;5036020;28;38826;-76
2022/03/04 02:38:58;;;;;;;30.90;19.03;;;1.60;99.90;;;;;;5041312;28;39470;-75
2022/03/04 02:41:24;;;;;;;28.13;18.30;;;1.60;99.90;;;;;;5038364;28;38867;-76
2022/03/04 02:43:50;;;;;;;27.17;18.30;;;1.60;99.90;;;;;;5033223;28;39920;-75
2022/03/04 02:46:16;;;;;;;29.87;19.83;;;1.70;99.90;;;;;;5034824;28;37962;-77
2022/03/04 02:48:42;;;;;;;31.83;18.30;;;1.70;99.90;;;;;;5038772;28;39110;-78
2022/03/04 02:51:08;;;;;;;29.23;18.27;;;1.70;99.90;;;;;;5038283;28;39489;-76
2022/03/04 02:53:34;;;;;;;27.60;18.33;;;1.60;99.90;;;;;;5039003;28;40246;-76
2022/03/04 02:56:00;;;;;;;27.63;17.70;;;1.60;99.90;;;;;;5038758;28;37243;-76
2022/03/04 02:58:27;;;;;;;29.13;18.83;;;1.60;99.90;;;;;;5036077;28;47470;-76
2022/03/04 03:00:53;;;;;;;29.50;18.50;;;1.60;99.90;;;;;;5037761;28;38946;-76
2022/03/04 03:03:19;;;;;;;29.90;19.20;;;1.60;99.90;;;;;;5034432;28;40489;-76
2022/03/04 03:05:45;;;;;;;30.70;19.57;;;1.60;99.90;;;;;;5034233;28;38543;-76
2022/03/04 03:08:11;;;;;;;30.70;19.00;;;1.50;99.90;;;;;;5033318;28;40267;-76
2022/03/04 03:10:37;;;;;;;30.37;18.93;;;1.50;99.90;;;;;;5040108;28;39078;-76
2022/03/04 03:13:03;;;;;;;29.17;18.57;;;1.50;99.90;;;;;;5034330;28;38644;-76
2022/03/04 03:15:30;;;;;;;28.50;17.77;;;1.50;99.90;;;;;;5037973;28;38227;-76
2022/03/04 03:17:56;;;;;;;30.40;18.67;;;1.50;99.90;;;;;;5030981;28;40732;-77
2022/03/04 03:20:23;;;;;;;30.97;19.67;;;1.50;99.90;;;;;;5032914;28;40149;-75
2022/03/04 03:22:49;;;;;;;30.90;19.07;;;1.50;99.90;;;;;;5030207;28;40255;-75
2022/03/04 03:25:16;;;;;;;31.70;19.20;;;1.50;99.90;;;;;;5048413;28;36584;-75
2022/03/04 03:27:42;;;;;;;27.43;18.23;;;1.40;99.90;;;;;;5038219;28;37970;-76
2022/03/04 03:30:09;;;;;;;31.37;19.53;;;1.40;99.90;;;;;;5032859;28;38930;-75
2022/03/04 03:32:35;;;;;;;29.33;19.03;;;1.40;99.90;;;;;;5038318;28;38447;-76
2022/03/04 03:35:01;;;;;;;32.03;19.53;;;1.40;99.90;;;;;;5044007;28;37872;-77
2022/03/04 03:37:27;;;;;;;30.87;19.80;;;1.40;99.90;;;;;;5041949;28;39538;-77
2022/03/04 03:39:54;;;;;;;31.33;20.43;;;1.40;99.90;;;;;;5042111;28;37235;-77
2022/03/04 03:42:20;;;;;;;30.97;19.87;;;1.30;99.90;;;;;;5053983;28;38949;-78
2022/03/04 03:44:46;;;;;;;29.00;17.67;;;1.30;99.90;;;;;;5042866;28;38310;-78
2022/03/04 03:47:12;;;;;;;32.57;19.90;;;1.30;99.90;;;;;;5039025;28;40421;-77
2022/03/04 03:49:39;;;;;;;32.93;20.50;;;1.20;99.90;;;;;;5038205;28;39236;-76
2022/03/04 03:52:06;;;;;;;32.97;19.93;;;1.20;99.90;;;;;;5042149;28;38702;-77
2022/03/04 03:54:33;;;;;;;30.33;18.57;;;1.10;99.90;;;;;;5039051;28;37883;-77
2022/03/04 03:56:59;;;;;;;33.47;20.03;;;1.20;99.90;;;;;;5036661;28;39905;-77
2022/03/04 03:59:25;;;;;;;35.90;21.37;;;1.10;99.90;;;;;;5038365;28;40097;-77
2022/03/04 04:01:51;;;;;;;31.87;20.60;;;1.00;99.90;;;;;;5038557;28;38243;-77
2022/03/04 04:04:17;;;;;;;31.33;19.57;;;1.10;99.90;;;;;;5037300;28;37459;-77
2022/03/04 04:06:43;;;;;;;30.77;20.43;;;1.00;99.90;;;;;;5038057;28;39590;-77
2022/03/04 04:09:10;;;;;;;33.00;20.67;;;1.00;99.90;;;;;;5031637;28;39825;-77
2022/03/04 04:11:38;;;;;;;32.53;20.27;;;1.00;99.90;;;;;;5036952;28;39616;-77
2022/03/04 04:14:06;;;;;;;32.93;20.50;;;1.00;99.90;;;;;;5036388;28;37172;-77
2022/03/04 04:16:32;;;;;;;32.83;19.97;;;0.90;99.90;;;;;;5038609;28;38886;-77
2022/03/04 04:18:58;;;;;;;33.77;20.07;;;0.90;99.90;;;;;;5035530;28;40000;-77
2022/03/04 04:21:26;;;;;;;34.00;20.27;;;1.00;99.90;;;;;;5031903;28;39937;-77
2022/03/04 04:23:53;;;;;;;39.63;22.47;;;0.90;99.90;;;;;;5032503;28;37855;-77
2022/03/04 04:26:19;;;;;;;33.67;21.47;;;1.00;99.90;;;;;;5036217;28;39559;-77
2022/03/04 04:28:45;;;;;;;33.17;21.20;;;0.90;99.90;;;;;;5034863;28;39778;-77
2022/03/04 04:31:12;;;;;;;33.97;21.37;;;0.90;99.90;;;;;;5032329;28;37459;-77
2022/03/04 04:33:38;;;;;;;32.07;20.63;;;0.90;99.90;;;;;;5036290;28;38172;-77
2022/03/04 04:36:05;;;;;;;34.83;20.87;;;0.80;99.90;;;;;;5040365;28;38706;-76
2022/03/04 04:38:31;;;;;;;33.90;21.33;;;0.90;99.90;;;;;;5038602;28;38963;-77
2022/03/04 04:40:58;;;;;;;34.10;21.33;;;0.90;99.90;;;;;;5036029;28;39184;-77
2022/03/04 04:43:24;;;;;;;37.13;22.00;;;0.80;99.90;;;;;;5034025;28;38037;-76
2022/03/04 04:45:51;;;;;;;36.33;21.63;;;0.80;99.90;;;;;;5041865;28;39880;-77
2022/03/04 04:48:17;;;;;;;34.20;21.13;;;0.80;99.90;;;;;;5043370;28;40793;-77
2022/03/04 04:50:43;;;;;;;39.07;21.93;;;0.80;99.90;;;;;;5037817;28;38821;-77
2022/03/04 04:53:10;;;;;;;34.37;21.13;;;0.80;99.90;;;;;;5037000;28;38414;-77
2022/03/04 04:55:36;;;;;;;37.27;22.53;;;0.80;99.90;;;;;;5040945;28;39838;-77
2022/03/04 04:58:02;;;;;;;37.90;22.63;;;0.80;99.90;;;;;;5043578;28;39782;-76
2022/03/04 05:00:28;;;;;;;38.13;21.77;;;0.70;99.90;;;;;;5042586;28;38608;-76
2022/03/04 05:02:54;;;;;;;36.10;21.60;;;0.70;99.90;;;;;;5042357;28;38144;-77
2022/03/04 05:05:20;;;;;;;39.70;22.50;;;0.60;99.90;;;;;;5043221;28;38634;-77
2022/03/04 05:07:47;;;;;;;37.77;21.50;;;0.60;99.90;;;;;;5044242;28;39272;-77
2022/03/04 05:10:13;;;;;;;37.83;22.90;;;0.50;99.90;;;;;;5039004;28;38212;-77
2022/03/04 05:12:40;;;;;;;40.43;23.07;;;0.50;99.90;;;;;;5044486;28;38150;-76
2022/03/04 05:15:07;;;;;;;38.43;23.97;;;0.50;99.90;;;;;;5037943;28;38942;-77
2022/03/04 05:17:33;;;;;;;41.73;23.67;;;0.50;99.90;;;;;;5042854;28;38889;-77
2022/03/04 05:19:59;;;;;;;38.60;23.50;;;0.50;99.90;;;;;;5044286;28;37874;-77
2022/03/04 05:22:25;;;;;;;40.50;23.60;;;0.50;99.90;;;;;;5041433;28;37205;-77
2022/03/04 05:24:52;;;;;;;40.87;23.20;;;0.50;99.90;;;;;;5036470;28;40285;-77
2022/03/04 05:27:18;;;;;;;34.30;21.90;;;0.50;99.90;;;;;;5057157;28;39531;-76
2022/03/04 05:29:44;;;;;;;35.77;21.60;;;0.50;99.90;;;;;;5043655;28;38363;-77
2022/03/04 05:32:11;;;;;;;43.83;23.57;;;0.40;99.90;;;;;;5041375;28;38585;-77
2022/03/04 05:34:37;;;;;;;42.53;24.17;;;0.40;99.90;;;;;;5042927;28;39987;-77
2022/03/04 05:37:05;;;;;;;40.13;24.53;;;0.40;99.90;;;;;;5035967;28;40389;-76
2022/03/04 05:39:31;;;;;;;37.87;22.27;;;0.40;99.90;;;;;;5034895;28;38678;-77
2022/03/04 05:41:57;;;;;;;38.03;21.87;;;0.40;99.90;;;;;;5042588;28;36192;-76
2022/03/04 05:44:23;;;;;;;37.67;23.23;;;0.40;99.90;;;;;;5041404;28;38313;-77
2022/03/04 05:46:49;;;;;;;36.47;23.03;;;0.40;99.90;;;;;;5039780;28;38544;-77
2022/03/04 05:49:15;;;;;;;42.40;22.73;;;0.30;99.90;;;;;;5034824;28;40944;-76
2022/03/04 05:51:41;;;;;;;42.53;23.13;;;0.30;99.90;;;;;;5036780;28;38133;-77
2022/03/04 05:54:07;;;;;;;39.83;23.70;;;0.20;99.90;;;;;;5037206;28;38676;-76
2022/03/04 05:56:33;;;;;;;36.90;22.73;;;0.20;99.90;;;;;;5038156;28;39502;-77
2022/03/04 05:58:59;;;;;;;42.87;25.67;;;0.20;99.90;;;;;;5038303;28;38379;-77
2022/03/04 06:01:25;;;;;;;39.53;23.20;;;0.20;99.90;;;;;;5034582;28;37315;-77
2022/03/04 06:03:51;;;;;;;39.40;23.30;;;0.20;99.90;;;;;;5038535;28;38705;-77
2022/03/04 06:06:19;;;;;;;40.10;24.40;;;0.10;99.90;;;;;;5034187;28;39399;-77
2022/03/04 06:08:45;;;;;;;36.10;23.67;;;0.10;99.90;;;;;;5031910;28;40268;-76
2022/03/04 06:11:11;;;;;;;38.70;24.30;;;0.10;99.90;;;;;;5034525;28;37355;-77
2022/03/04 06:13:39;;;;;;;41.30;24.27;;;0.10;99.90;;;;;;5037486;28;38741;-77
2022/03/04 06:16:05;;;;;;;36.67;22.83;;;0.10;99.90;;;;;;5028095;28;39306;-76
2022/03/04 06:18:32;;;;;;;40.60;23.80;;;0.00;99.90;;;;;;5024509;28;37487;-77
2022/03/04 06:20:58;;;;;;;41.60;23.93;;;0.00;99.90;;;;;;5024252;28;38784;-77
2022/03/04 06:23:25;;;;;;;38.47;23.53;;;0.00;99.90;;;;;;5028526;28;38959;-77
2022/03/04 06:25:51;;;;;;;44.40;23.87;;;0.10;99.90;;;;;;5039018;28;40479;-77
2022/03/04 06:28:17;;;;;;;40.57;24.37;;;0.10;99.90;;;;;;5037481;28;38684;-77
2022/03/04 06:30:44;;;;;;;42.20;25.03;;;0.10;99.90;;;;;;5035973;28;38918;-77
2022/03/04 06:35:55;;;;;;;41.57;24.30;;;0.20;99.90;;;;;;5033164;28;39151;-77
2022/03/04 06:38:22;;;;;;;43.77;24.50;;;0.30;99.90;;;;;;5035515;28;39368;-77
2022/03/04 06:40:49;;;;;;;38.00;23.33;;;0.30;99.90;;;;;;5035077;28;38267;-77
2022/03/04 06:43:16;;;;;;;41.03;24.40;;;0.30;99.90;;;;;;5029552;28;38807;-78
2022/03/04 06:45:46;;;;;;;41.60;24.40;;;0.40;99.90;;;;;;5033623;28;39144;-77
2022/03/04 06:48:13;;;;;;;38.03;22.73;;;0.50;99.90;;;;;;5043020;28;39161;-77
2022/03/04 06:50:40;;;;;;;37.47;22.47;;;0.50;99.90;;;;;;5036962;28;39408;-77
2022/03/04 06:53:06;;;;;;;37.77;23.07;;;0.60;99.90;;;;;;5035395;28;39713;-77
2022/03/04 06:55:33;;;;;;;40.47;23.47;;;0.70;99.90;;;;;;5041217;28;37715;-77
2022/03/04 06:57:59;;;;;;;41.03;21.70;;;0.80;99.90;;;;;;5040296;28;38072;-77
2022/03/04 07:00:25;;;;;;;34.73;21.43;;;0.70;99.90;;;;;;5037666;28;37291;-78
2022/03/04 07:02:52;;;;;;;35.97;20.93;;;0.80;99.90;;;;;;5045510;28;38932;-77
2022/03/04 07:05:21;;;;;;;36.13;21.60;;;0.80;99.90;;;;;;5037189;28;39584;-77
2022/03/04 07:07:52;;;;;;;35.60;22.03;;;0.90;99.90;;;;;;5036043;28;40129;-77
2022/03/04 07:10:19;;;;;;;33.83;20.77;;;1.00;99.90;;;;;;5043610;28;40322;-77
2022/03/04 07:12:46;;;;;;;36.83;21.20;;;1.10;99.90;;;;;;5042739;28;40921;-77
2022/03/04 07:15:13;;;;;;;40.07;22.17;;;1.20;99.90;;;;;;5039659;28;39016;-76
2022/03/04 07:17:39;;;;;;;32.13;20.43;;;1.20;99.90;;;;;;5037915;28;38346;-77
2022/03/04 07:20:07;;;;;;;33.97;20.20;;;1.20;99.90;;;;;;5037304;28;38281;-77
2022/03/04 07:22:35;;;;;;;35.17;19.87;;;1.20;99.90;;;;;;5037532;28;38931;-77
2022/03/04 07:25:05;;;;;;;33.83;21.40;;;1.30;99.90;;;;;;5034767;28;37929;-77
2022/03/04 07:27:33;;;;;;;32.77;19.87;;;1.30;99.90;;;;;;5031734;28;47750;-77
2022/03/04 07:30:00;;;;;;;33.30;20.10;;;1.30;99.90;;;;;;5029806;28;37891;-77
2022/03/04 07:32:26;;;;;;;34.43;20.87;;;1.50;99.90;;;;;;5031279;28;40425;-77
2022/03/04 07:34:52;;;;;;;34.43;21.23;;;1.50;99.90;;;;;;5032944;28;38877;-77
2022/03/04 07:37:18;;;;;;;34.60;21.00;;;1.70;99.90;;;;;;5025705;28;38118;-77
2022/03/04 07:39:44;;;;;;;32.40;20.23;;;1.70;99.90;;;;;;5025176;28;38986;-77
2022/03/04 07:42:10;;;;;;;35.23;19.97;;;1.80;99.90;;;;;;5045739;28;40460;-77
2022/03/04 07:44:36;;;;;;;33.43;19.80;;;1.90;99.90;;;;;;5033963;28;38560;-78
2022/03/04 07:47:03;;;;;;;29.90;19.63;;;2.00;99.90;;;;;;5029756;28;37792;-77
2022/03/04 07:49:29;;;;;;;29.70;18.93;;;2.20;99.90;;;;;;5036188;28;38927;-77
2022/03/04 07:51:55;;;;;;;38.40;20.57;;;2.30;99.90;;;;;;5043542;28;38599;-77
2022/03/04 07:54:21;;;;;;;33.40;19.90;;;2.40;99.90;;;;;;5035500;28;38626;-78
2022/03/04 07:56:48;;;;;;;32.83;19.47;;;2.40;99.90;;;;;;5029049;28;38585;-75
2022/03/04 07:59:14;;;;;;;32.20;19.83;;;2.40;99.90;;;;;;5027936;28;37947;-78
2022/03/04 08:01:40;;;;;;;28.63;19.20;;;2.40;99.90;;;;;;5030297;28;38583;-75
2022/03/04 08:04:06;;;;;;;32.90;19.47;;;2.50;99.90;;;;;;5025662;28;39563;-74
2022/03/04 08:06:32;;;;;;;30.63;18.97;;;2.50;99.90;;;;;;5039251;28;38747;-76
2022/03/04 08:08:58;;;;;;;33.83;19.77;;;2.70;99.90;;;;;;5033198;28;37513;-75
2022/03/04 08:11:25;;;;;;;32.17;19.23;;;2.70;99.90;;;;;;5029696;28;39116;-76
2022/03/04 08:13:51;;;;;;;35.03;20.17;;;2.80;99.90;;;;;;5027883;28;38583;-74
2022/03/04 08:16:17;;;;;;;33.87;20.57;;;2.90;99.90;;;;;;5035209;28;38499;-75
2022/03/04 08:18:43;;;;;;;34.20;20.70;;;2.90;99.90;;;;;;5032054;28;38158;-75
2022/03/04 08:21:11;;;;;;;34.30;19.97;;;2.90;99.90;;;;;;5031333;28;39453;-74
2022/03/04 08:23:38;;;;;;;32.73;20.20;;;3.00;99.90;;;;;;5035105;28;39248;-75
2022/03/04 08:26:04;;;;;;;33.97;19.97;;;3.10;99.90;;;;;;5032876;28;40649;-75
2022/03/04 08:28:33;;;;;;;32.23;19.47;;;3.10;99.90;;;;;;5037239;28;37704;-75
2022/03/04 08:30:59;;;;;;;33.80;19.83;;;3.10;99.90;;;;;;5040121;28;39560;-74
2022/03/04 08:33:27;;;;;;;33.57;20.17;;;3.20;99.90;;;;;;5038811;28;39863;-75
2022/03/04 08:35:54;;;;;;;35.07;20.07;;;3.20;99.90;;;;;;5037037;28;40250;-75
2022/03/04 08:38:20;;;;;;;33.83;19.63;;;3.30;99.90;;;;;;5029933;28;38213;-74
2022/03/04 08:40:46;;;;;;;35.10;20.23;;;3.40;99.90;;;;;;5036044;28;38846;-75
2022/03/04 08:43:13;;;;;;;33.57;20.07;;;3.40;99.90;;;;;;5033294;28;38892;-74
2022/03/04 08:45:39;;;;;;;32.30;18.67;;;3.50;99.90;;;;;;5033190;28;39238;-74
2022/03/04 08:48:06;;;;;;;30.63;19.33;;;3.50;99.90;;;;;;5034592;28;37032;-75
2022/03/04 08:50:34;;;;;;;31.23;19.47;;;3.60;99.90;;;;;;5035449;28;39648;-77
2022/03/04 08:53:03;;;;;;;31.37;18.53;;;3.60;99.90;;;;;;5033152;28;40353;-78
2022/03/04 08:55:32;;;;;;;27.23;18.40;;;3.70;99.90;;;;;;5034219;28;47224;-77
2022/03/04 08:58:00;;;;;;;34.73;18.87;;;3.70;99.90;;;;;;5036919;28;38622;-78
2022/03/04 09:00:28;;;;;;;32.37;19.90;;;3.70;99.90;;;;;;5037690;28;38669;-77
2022/03/04 09:02:55;;;;;;;33.03;19.80;;;3.80;99.90;;;;;;5037613;28;38738;-78
2022/03/04 09:05:21;;;;;;;31.63;17.73;;;3.70;99.90;;;;;;5038535;28;39533;-77
2022/03/04 09:07:47;;;;;;;28.70;18.80;;;3.90;99.90;;;;;;5038624;28;37334;-78
2022/03/04 09:10:13;;;;;;;32.87;20.13;;;4.00;99.90;;;;;;5034998;28;38220;-78
2022/03/04 09:12:40;;;;;;;30.20;19.17;;;4.10;99.90;;;;;;5034827;28;37138;-78
2022/03/04 09:15:07;;;;;;;30.17;18.93;;;4.10;99.90;;;;;;5038330;28;39878;-79
2022/03/04 09:17:34;;;;;;;29.70;17.97;;;4.30;99.90;;;;;;5036868;28;37751;-79
2022/03/04 09:20:01;;;;;;;31.67;18.80;;;4.30;99.90;;;;;;5038470;28;39616;-80
2022/03/04 09:22:27;;;;;;;29.23;19.37;;;4.30;99.90;;;;;;5025386;28;48735;-78
2022/03/04 09:24:53;;;;;;;30.07;19.33;;;4.40;99.90;;;;;;5042395;28;39076;-79
2022/03/04 09:27:19;;;;;;;29.00;18.23;;;4.40;99.90;;;;;;5040764;28;37804;-79
2022/03/04 09:29:45;;;;;;;35.87;19.70;;;4.50;99.90;;;;;;5038316;28;38944;-78
2022/03/04 09:32:12;;;;;;;35.07;19.83;;;4.60;99.90;;;;;;5034523;28;40023;-79
2022/03/04 09:34:38;;;;;;;29.30;18.80;;;4.70;99.90;;;;;;5034712;28;37335;-79
2022/03/04 09:37:04;;;;;;;33.17;19.63;;;4.80;99.90;;;;;;5037205;28;36747;-78
2022/03/04 09:39:30;;;;;;;29.07;19.23;;;4.90;99.90;;;;;;5036904;28;40005;-79
2022/03/04 09:41:57;;;;;;;29.63;19.33;;;5.00;99.90;;;;;;5042423;28;38720;-79
2022/03/04 09:44:24;;;;;;;36.67;19.40;;;5.00;99.90;;;;;;5043037;28;39179;-81
2022/03/04 09:46:52;;;;;;;28.67;19.40;;;5.10;99.90;;;;;;5039057;28;37611;-79
2022/03/04 09:49:18;;;;;;;32.93;19.40;;;5.30;99.90;;;;;;5053674;28;39609;-81
2022/03/04 09:51:45;;;;;;;26.87;18.37;;;5.30;99.90;;;;;;5031378;28;40060;-81
2022/03/04 09:54:11;;;;;;;33.50;18.30;;;5.40;99.90;;;;;;5035805;28;39745;-79
2022/03/04 09:56:38;;;;;;;30.53;20.20;;;5.50;99.90;;;;;;5047260;28;37989;-81
2022/03/04 09:59:04;;;;;;;28.70;17.97;;;5.60;99.90;;;;;;5044644;28;38929;-81
2022/03/04 10:01:30;;;;;;;30.40;18.20;;;5.70;99.90;;;;;;5046725;28;37722;-82
2022/03/04 10:03:56;;;;;;;28.10;18.37;;;5.80;99.90;;;;;;5046245;28;38005;-82
2022/03/04 10:06:23;;;;;;;26.67;17.57;;;6.00;99.90;;;;;;5049643;28;37065;-82
2022/03/04 10:08:53;;;;;;;28.90;17.63;;;6.20;99.90;;;;;;5059106;28;39331;-81
2022/03/04 10:11:29;;;;;;;28.60;18.43;;;6.30;99.90;;;;;;5047727;28;38800;-82
2022/03/04 10:13:57;;;;;;;28.03;19.10;;;6.40;99.90;;;;;;5045142;28;37469;-83
2022/03/04 10:16:51;;;;;;;31.63;18.03;;;6.60;99.90;;;;;;5050802;28;37947;-81
2022/03/04 10:19:20;;;;;;;30.17;17.93;;;6.70;99.90;;;;;;5036901;28;38582;-82
2022/03/04 10:21:48;;;;;;;31.33;18.63;;;7.00;99.90;;;;;;5043968;28;38709;-82
2022/03/04 10:24:16;;;;;;;27.63;18.60;;;7.00;99.90;;;;;;5048701;28;39953;-82
2022/03/04 10:26:42;;;;;;;30.37;18.37;;;7.00;99.90;;;;;;5047309;28;37533;-82
2022/03/04 10:29:24;;;;;;;30.67;18.17;;;7.10;99.90;;;;;;5052355;28;38680;-81
2022/03/04 10:32:12;;;;;;;27.13;17.70;;;7.20;99.90;;;;;;5049327;28;40173;-82
2022/03/04 10:35:01;;;;;;;29.80;19.50;;;7.30;99.90;;;;;;5046122;28;47173;-82
2022/03/04 10:37:52;;;;;;;30.33;17.70;;;7.30;99.90;;;;;;5048760;28;37876;-81
2022/03/04 10:40:29;;;;;;;25.87;17.53;;;7.40;99.90;;;;;;5064948;28;40454;-82
2022/03/04 10:43:05;;;;;;;26.67;17.47;;;7.50;99.90;;;;;;5043765;28;39195;-81
2022/03/04 10:45:34;;;;;;;26.97;17.63;;;7.60;99.90;;;;;;5046649;28;48664;-82
2022/03/04 10:48:09;;;;;;;26.73;16.87;;;7.70;99.90;;;;;;5045100;28;37628;-81
2022/03/04 10:50:41;;;;;;;27.13;18.03;;;7.90;99.90;;;;;;5045606;28;49873;-82
2022/03/04 10:53:17;;;;;;;26.50;17.90;;;8.10;99.90;;;;;;5042059;28;40415;-81
2022/03/04 10:55:51;;;;;;;25.23;17.80;;;8.30;99.90;;;;;;5044045;28;36950;-81
2022/03/04 10:58:23;;;;;;;28.67;16.80;;;8.20;99.90;;;;;;5049963;28;36910;-80
2022/03/04 11:00:57;;;;;;;25.33;16.60;;;8.20;99.90;;;;;;5043051;28;38371;-82
2022/03/04 11:03:24;;;;;;;28.07;16.93;;;8.30;99.90;;;;;;5046558;28;39565;-81
2022/03/04 11:05:55;;;;;;;30.97;18.10;;;8.40;99.90;;;;;;5045412;28;39072;-82
2022/03/04 11:08:22;;;;;;;25.90;17.73;;;8.50;99.90;;;;;;5042383;28;38185;-81
2022/03/04 11:10:52;;;;;;;28.27;17.83;;;8.60;99.90;;;;;;5049199;28;37763;-81
2022/03/04 11:13:19;;;;;;;30.93;18.77;;;8.70;99.90;;;;;;5054408;28;38757;-78
2022/03/04 11:15:46;;;;;;;25.43;17.23;;;8.70;99.90;;;;;;5053656;28;38625;-79
2022/03/04 11:18:15;;;;;;;28.93;17.53;;;8.80;99.90;;;;;;5049087;28;36885;-79
2022/03/04 11:20:43;;;;;;;32.63;18.97;;;8.80;99.90;;;;;;5050637;28;40249;-82
2022/03/04 11:23:15;;;;;;;28.47;17.93;;;8.80;99.90;;;;;;5036879;28;39686;-78
2022/03/04 11:26:04;;;;;;;24.98;16.95;;;9.00;99.90;;;;;;5046868;28;39436;-79
2022/03/04 11:28:37;;;;;;;26.57;18.17;;;9.20;99.90;;;;;;5029199;28;48698;-79
2022/03/04 11:31:06;;;;;;;27.55;17.40;;;9.30;99.90;;;;;;5036816;28;39944;-79
2022/03/04 11:33:37;;;;;;;27.70;17.53;;;9.50;99.90;;;;;;5050032;28;39333;-79
2022/03/04 11:36:07;;;;;;;31.57;18.60;;;9.50;99.90;;;;;;5047152;28;38663;-79
2022/03/04 11:38:48;;;;;;;26.37;17.70;;;9.60;99.90;;;;;;5042282;28;36646;-79
2022/03/04 11:41:26;;;;;;;25.00;18.07;;;9.70;99.90;;;;;;5050570;28;37952;-79
2022/03/04 11:43:55;;;;;;;25.47;17.57;;;9.80;99.90;;;;;;5065042;28;39993;-79
2022/03/04 11:46:29;;;;;;;24.93;17.37;;;10.10;99.90;;;;;;5054003;28;38121;-80
2022/03/04 11:49:30;;;;;;;25.27;17.27;;;10.10;99.90;;;;;;5051003;28;38716;-78
2022/03/04 11:52:11;;;;;;;22.37;16.13;;;10.20;99.90;;;;;;5053252;28;47934;-79
2022/03/04 11:55:05;;;;;;;26.37;17.37;;;10.30;99.90;;;;;;5051085;28;47160;-78
2022/03/04 11:57:44;;;;;;;26.60;18.77;;;10.40;99.90;;;;;;5048005;28;47201;-79
2022/03/04 12:00:14;;;;;;;26.23;17.20;;;10.50;99.90;;;;;;5048261;28;38371;-78
2022/03/04 12:02:50;;;;;;;24.23;16.80;;;10.50;99.90;;;;;;5030893;28;38974;-79
2022/03/04 12:05:21;;;;;;;26.05;17.08;;;10.60;99.90;;;;;;5045345;28;38411;-79
2022/03/04 12:07:54;;;;;;;23.30;17.17;;;10.70;99.90;;;;;;5049479;28;38534;-79
2022/03/04 12:10:25;;;;;;;25.83;17.50;;;10.90;99.90;;;;;;5037639;28;36396;-79
2022/03/04 12:13:02;;;;;;;25.80;17.17;;;11.10;99.90;;;;;;5053877;28;39778;-79
2022/03/04 12:15:37;;;;;;;24.00;16.83;;;11.00;99.90;;;;;;5049151;28;47629;-78
2022/03/04 12:18:28;;;;;;;24.77;16.80;;;11.10;99.90;;;;;;5047109;28;38976;-80
2022/03/04 12:21:05;;;;;;;26.13;17.45;;;11.10;99.90;;;;;;5052550;28;37882;-81
2022/03/04 12:23:42;;;;;;;24.95;17.17;;;11.20;99.90;;;;;;5051726;28;49083;-80
2022/03/04 12:26:20;;;;;;;23.38;17.75;;;11.00;99.90;;;;;;5050436;28;40419;-78
2022/03/04 12:28:51;;;;;;;23.13;16.85;;;10.90;99.90;;;;;;5047977;28;38831;-79
2022/03/04 12:31:24;;;;;;;28.10;18.10;;;11.10;99.90;;;;;;5032450;28;36879;-79
2022/03/04 12:33:56;;;;;;;24.27;17.63;;;11.20;99.90;;;;;;5050651;28;38600;-79
2022/03/04 12:36:25;;;;;;;25.92;17.35;;;11.20;99.90;;;;;;5051385;28;38559;-78
2022/03/04 12:38:57;;;;;;;26.40;16.60;;;11.00;99.90;;;;;;5039642;28;37276;-78
2022/03/04 12:41:26;;;;;;;24.17;17.33;;;11.20;99.90;;;;;;5050545;28;37436;-80